ARA221 EGKK-LFPG
Flight info
| Callsign | ARA221 |
|---|---|
| Flight time | 0h 34m |
| Altitude | 23000 |
| Route | SFD M605 HARDY UM605 BIBAX |
| Aircraft | B737/M-SDE2E3FGHIRWXY/LB1 |
Departure
| Time | 2026-05-05 20:05 |
|---|---|
| Airport | London Gatwick Airport (EGKK) |
Arrival
| Time | 2026-05-05 20:40 |
|---|---|
| Airport | Charles de Gaulle International Airport (LFPG) |
| Time | Latitude | Longitude | Altitude | Speed | Heading |
|---|---|---|---|---|---|
| 2026-05-05 19:20 | 51.15366 | -0.16346 | 204 ft | 0 kts | 357° |
| 2026-05-05 19:41 | 51.15365 | -0.16346 | 204 ft | 1 kts | 357° |
| 2026-05-05 19:41 | 51.15351 | -0.16345 | 207 ft | 3 kts | 356° |
| 2026-05-05 19:41 | 51.15334 | -0.16343 | 204 ft | 1 kts | 356° |
| 2026-05-05 19:42 | 51.15329 | -0.16343 | 206 ft | 1 kts | 356° |
| 2026-05-05 19:44 | 51.15337 | -0.16343 | 204 ft | 0 kts | 356° |
| 2026-05-05 19:44 | 51.15331 | -0.16343 | 206 ft | 2 kts | 330° |
| 2026-05-05 19:44 | 51.15323 | -0.16324 | 214 ft | 2 kts | 271° |
| 2026-05-05 19:45 | 51.15324 | -0.16307 | 212 ft | 0 kts | 256° |
| 2026-05-05 19:49 | 51.15324 | -0.16308 | 212 ft | 0 kts | 256° |
| 2026-05-05 19:50 | 51.15315 | -0.16364 | 209 ft | 10 kts | 256° |
| 2026-05-05 19:50 | 51.15311 | -0.16470 | 204 ft | 7 kts | 307° |
| 2026-05-05 19:50 | 51.15374 | -0.16494 | 206 ft | 14 kts | 348° |
| 2026-05-05 19:50 | 51.15408 | -0.16597 | 204 ft | 12 kts | 257° |
| 2026-05-05 19:51 | 51.15389 | -0.16728 | 206 ft | 12 kts | 256° |
| 2026-05-05 19:51 | 51.15370 | -0.16860 | 209 ft | 13 kts | 257° |
| 2026-05-05 19:51 | 51.15349 | -0.17017 | 204 ft | 17 kts | 258° |
| 2026-05-05 19:51 | 51.15322 | -0.17213 | 206 ft | 18 kts | 257° |
| 2026-05-05 19:52 | 51.15303 | -0.17401 | 210 ft | 12 kts | 264° |
| 2026-05-05 19:52 | 51.15296 | -0.17482 | 204 ft | 4 kts | 259° |
| 2026-05-05 19:52 | 51.15292 | -0.17520 | 204 ft | 3 kts | 259° |
| 2026-05-05 19:52 | 51.15287 | -0.17556 | 208 ft | 3 kts | 258° |
| 2026-05-05 19:53 | 51.15285 | -0.17574 | 211 ft | 0 kts | 257° |
| 2026-05-05 19:54 | 51.15281 | -0.17603 | 204 ft | 8 kts | 257° |
| 2026-05-05 19:55 | 51.15261 | -0.17743 | 210 ft | 17 kts | 257° |
| 2026-05-05 19:55 | 51.15236 | -0.17918 | 204 ft | 17 kts | 257° |
| 2026-05-05 19:55 | 51.15213 | -0.18095 | 209 ft | 16 kts | 258° |
| 2026-05-05 19:55 | 51.15190 | -0.18263 | 204 ft | 16 kts | 261° |
| 2026-05-05 19:56 | 51.15168 | -0.18462 | 210 ft | 20 kts | 257° |
| 2026-05-05 19:56 | 51.15134 | -0.18707 | 204 ft | 25 kts | 258° |
| 2026-05-05 19:56 | 51.15096 | -0.18991 | 208 ft | 27 kts | 258° |
| 2026-05-05 19:56 | 51.15047 | -0.19252 | 206 ft | 21 kts | 216° |
| 2026-05-05 19:57 | 51.14950 | -0.19383 | 210 ft | 20 kts | 258° |
| 2026-05-05 19:57 | 51.14930 | -0.19528 | 206 ft | 20 kts | 257° |
| 2026-05-05 19:57 | 51.14892 | -0.19808 | 207 ft | 19 kts | 258° |
| 2026-05-05 19:57 | 51.14863 | -0.20010 | 206 ft | 18 kts | 257° |
| 2026-05-05 19:58 | 51.14836 | -0.20208 | 206 ft | 19 kts | 257° |
| 2026-05-05 19:58 | 51.14795 | -0.20501 | 212 ft | 32 kts | 257° |
| 2026-05-05 19:58 | 51.14748 | -0.20844 | 208 ft | 31 kts | 257° |
| 2026-05-05 19:58 | 51.14707 | -0.21137 | 209 ft | 20 kts | 257° |
| 2026-05-05 19:59 | 51.14695 | -0.21225 | 208 ft | 0 kts | 257° |
| 2026-05-05 19:59 | 51.14695 | -0.21226 | 208 ft | 0 kts | 257° |
| 2026-05-05 20:00 | 51.14693 | -0.21238 | 208 ft | 3 kts | 257° |
| 2026-05-05 20:00 | 51.14685 | -0.21297 | 211 ft | 7 kts | 257° |
| 2026-05-05 20:00 | 51.14658 | -0.21341 | 209 ft | 5 kts | 193° |
| 2026-05-05 20:00 | 51.14642 | -0.21339 | 204 ft | 0 kts | 166° |
| 2026-05-05 20:01 | 51.14625 | -0.21333 | 204 ft | 0 kts | 166° |
| 2026-05-05 20:01 | 51.14616 | -0.21329 | 204 ft | 0 kts | 167° |
| 2026-05-05 20:02 | 51.14614 | -0.21329 | 204 ft | 2 kts | 167° |
| 2026-05-05 20:02 | 51.14569 | -0.21307 | 206 ft | 15 kts | 154° |
| 2026-05-05 20:02 | 51.14521 | -0.21181 | 205 ft | 2 kts | 83° |
| 2026-05-05 20:03 | 51.14522 | -0.21176 | 205 ft | 0 kts | 78° |
| 2026-05-05 20:03 | 51.14522 | -0.21172 | 205 ft | 0 kts | 78° |
| 2026-05-05 20:03 | 51.14523 | -0.21168 | 205 ft | 0 kts | 78° |
| 2026-05-05 20:03 | 51.14523 | -0.21165 | 205 ft | 0 kts | 78° |
| 2026-05-05 20:04 | 51.14523 | -0.21164 | 205 ft | 0 kts | 78° |
| 2026-05-05 20:04 | 51.14527 | -0.21138 | 215 ft | 15 kts | 78° |
| 2026-05-05 20:05 | 51.14611 | -0.20519 | 207 ft | 98 kts | 77° |
| 2026-05-05 20:05 | 51.14811 | -0.19090 | 315 ft | 154 kts | 77° |
| 2026-05-05 20:05 | 51.15030 | -0.17455 | 1285 ft | 147 kts | 77° |
| 2026-05-05 20:05 | 51.15255 | -0.15908 | 2282 ft | 142 kts | 76° |
| 2026-05-05 20:06 | 51.15453 | -0.14304 | 2973 ft | 154 kts | 77° |
| 2026-05-05 20:06 | 51.15692 | -0.12452 | 3307 ft | 187 kts | 75° |
| 2026-05-05 20:06 | 51.15983 | -0.10254 | 3605 ft | 216 kts | 79° |
| 2026-05-05 20:06 | 51.15783 | -0.07813 | 4214 ft | 232 kts | 110° |
| 2026-05-05 20:07 | 51.14763 | -0.05711 | 4733 ft | 260 kts | 142° |
| 2026-05-05 20:07 | 51.13013 | -0.04621 | 5390 ft | 278 kts | 166° |
| 2026-05-05 20:07 | 51.11099 | -0.03990 | 6376 ft | 282 kts | 168° |
| 2026-05-05 20:07 | 51.10485 | -0.03796 | 6686 ft | 283 kts | 168° |
| 2026-05-05 20:08 | 51.08925 | -0.03308 | 7460 ft | 285 kts | 166° |
| 2026-05-05 20:08 | 51.07103 | -0.02513 | 8321 ft | 290 kts | 163° |
| 2026-05-05 20:08 | 51.05190 | -0.01580 | 8764 ft | 292 kts | 162° |
| 2026-05-05 20:08 | 51.03269 | -0.00639 | 9075 ft | 296 kts | 162° |
| 2026-05-05 20:09 | 51.01377 | 0.00282 | 9921 ft | 299 kts | 163° |
| 2026-05-05 20:09 | 50.99435 | 0.01209 | 10836 ft | 298 kts | 163° |
| 2026-05-05 20:09 | 50.97437 | 0.02155 | 11729 ft | 302 kts | 163° |
| 2026-05-05 20:09 | 50.95415 | 0.03111 | 12558 ft | 306 kts | 163° |
| 2026-05-05 20:10 | 50.93380 | 0.04070 | 13479 ft | 308 kts | 162° |
| 2026-05-05 20:10 | 50.91318 | 0.05042 | 14317 ft | 312 kts | 162° |
| 2026-05-05 20:10 | 50.89223 | 0.06028 | 15116 ft | 316 kts | 162° |
| 2026-05-05 20:10 | 50.87100 | 0.07026 | 15941 ft | 320 kts | 162° |
| 2026-05-05 20:11 | 50.84955 | 0.08036 | 16797 ft | 323 kts | 162° |
| 2026-05-05 20:11 | 50.82784 | 0.09059 | 17608 ft | 328 kts | 162° |
| 2026-05-05 20:11 | 50.80581 | 0.10095 | 18401 ft | 332 kts | 162° |
| 2026-05-05 20:11 | 50.78348 | 0.11144 | 19122 ft | 336 kts | 162° |
| 2026-05-05 20:12 | 50.76127 | 0.12333 | 19849 ft | 339 kts | 152° |
| 2026-05-05 20:12 | 50.74130 | 0.14444 | 20152 ft | 356 kts | 140° |
| 2026-05-05 20:12 | 50.72150 | 0.16999 | 20312 ft | 377 kts | 139° |
| 2026-05-05 20:12 | 50.70089 | 0.19732 | 20443 ft | 397 kts | 139° |
| 2026-05-05 20:13 | 50.67919 | 0.22589 | 20586 ft | 415 kts | 139° |
| 2026-05-05 20:13 | 50.65647 | 0.25531 | 20859 ft | 428 kts | 140° |
| 2026-05-05 20:13 | 50.63317 | 0.28509 | 21331 ft | 433 kts | 140° |
| 2026-05-05 20:13 | 50.61012 | 0.31437 | 21981 ft | 434 kts | 140° |
| 2026-05-05 20:14 | 50.58643 | 0.34439 | 22464 ft | 439 kts | 140° |
| 2026-05-05 20:14 | 50.56254 | 0.37469 | 22918 ft | 441 kts | 140° |
| 2026-05-05 20:14 | 50.53871 | 0.40499 | 22928 ft | 451 kts | 140° |
| 2026-05-05 20:14 | 50.51412 | 0.43628 | 22938 ft | 459 kts | 140° |
| 2026-05-05 20:15 | 50.48916 | 0.46797 | 22943 ft | 464 kts | 140° |
| 2026-05-05 20:15 | 50.46422 | 0.49957 | 22928 ft | 467 kts | 140° |
| 2026-05-05 20:15 | 50.43923 | 0.53113 | 22918 ft | 466 kts | 140° |
| 2026-05-05 20:15 | 50.41394 | 0.56300 | 22919 ft | 466 kts | 140° |
| 2026-05-05 20:16 | 50.38872 | 0.59478 | 22921 ft | 465 kts | 140° |
| 2026-05-05 20:16 | 50.36350 | 0.62652 | 22920 ft | 465 kts | 140° |
| 2026-05-05 20:16 | 50.33826 | 0.65824 | 22917 ft | 465 kts | 140° |
| 2026-05-05 20:16 | 50.31308 | 0.68990 | 22926 ft | 464 kts | 140° |
| 2026-05-05 20:17 | 50.28790 | 0.72155 | 22915 ft | 464 kts | 141° |
| 2026-05-05 20:17 | 50.26277 | 0.75310 | 22923 ft | 464 kts | 141° |
| 2026-05-05 20:17 | 50.24435 | 0.77621 | 22922 ft | 463 kts | 141° |
| 2026-05-05 20:17 | 50.22771 | 0.79707 | 22919 ft | 463 kts | 141° |
| 2026-05-05 20:18 | 50.20261 | 0.82847 | 22914 ft | 463 kts | 141° |
| 2026-05-05 20:18 | 50.17748 | 0.85985 | 22919 ft | 463 kts | 141° |
| 2026-05-05 20:18 | 50.15237 | 0.89107 | 22744 ft | 459 kts | 141° |
| 2026-05-05 20:18 | 50.12751 | 0.92190 | 22460 ft | 453 kts | 141° |
| 2026-05-05 20:19 | 50.10298 | 0.95230 | 22198 ft | 450 kts | 141° |
| 2026-05-05 20:19 | 50.07847 | 0.98264 | 21936 ft | 449 kts | 141° |
| 2026-05-05 20:19 | 50.05371 | 1.01220 | 21664 ft | 449 kts | 146° |
| 2026-05-05 20:19 | 50.02633 | 1.03570 | 21411 ft | 449 kts | 153° |
| 2026-05-05 20:20 | 49.99821 | 1.05652 | 21159 ft | 448 kts | 154° |
| 2026-05-05 20:20 | 49.96983 | 1.07676 | 20893 ft | 447 kts | 154° |
| 2026-05-05 20:20 | 49.94158 | 1.09691 | 20644 ft | 445 kts | 154° |
| 2026-05-05 20:20 | 49.91355 | 1.11720 | 20387 ft | 443 kts | 154° |
| 2026-05-05 20:21 | 49.88575 | 1.13761 | 20134 ft | 442 kts | 154° |
| 2026-05-05 20:21 | 49.85807 | 1.15814 | 19886 ft | 439 kts | 153° |
| 2026-05-05 20:21 | 49.83100 | 1.17833 | 19624 ft | 424 kts | 153° |
| 2026-05-05 20:21 | 49.80498 | 1.19776 | 19364 ft | 406 kts | 153° |
| 2026-05-05 20:22 | 49.78005 | 1.21637 | 19108 ft | 390 kts | 153° |
| 2026-05-05 20:22 | 49.75606 | 1.23426 | 18861 ft | 376 kts | 153° |
| 2026-05-05 20:22 | 49.73276 | 1.25162 | 18611 ft | 367 kts | 153° |
| 2026-05-05 20:22 | 49.70987 | 1.26866 | 18374 ft | 363 kts | 153° |
| 2026-05-05 20:23 | 49.68751 | 1.28527 | 18147 ft | 361 kts | 153° |
| 2026-05-05 20:23 | 49.66494 | 1.30203 | 17875 ft | 358 kts | 153° |
| 2026-05-05 20:23 | 49.64252 | 1.31866 | 17603 ft | 356 kts | 153° |
| 2026-05-05 20:23 | 49.62040 | 1.33504 | 17325 ft | 346 kts | 153° |
| 2026-05-05 20:24 | 49.59924 | 1.35068 | 17040 ft | 332 kts | 153° |
| 2026-05-05 20:24 | 49.57855 | 1.36596 | 16594 ft | 328 kts | 153° |
| 2026-05-05 20:24 | 49.55805 | 1.38111 | 16125 ft | 326 kts | 152° |
| 2026-05-05 20:24 | 49.53757 | 1.39623 | 15642 ft | 325 kts | 152° |
| 2026-05-05 20:25 | 49.52441 | 1.40593 | 15341 ft | 325 kts | 153° |
| 2026-05-05 20:25 | 49.51328 | 1.41414 | 15075 ft | 324 kts | 153° |
| 2026-05-05 20:25 | 49.49294 | 1.42912 | 14601 ft | 323 kts | 152° |
| 2026-05-05 20:25 | 49.47266 | 1.44404 | 14127 ft | 323 kts | 152° |
| 2026-05-05 20:26 | 49.45241 | 1.45893 | 13642 ft | 323 kts | 152° |
| 2026-05-05 20:26 | 49.43216 | 1.47380 | 13084 ft | 323 kts | 152° |
| 2026-05-05 20:26 | 49.41222 | 1.48843 | 12576 ft | 321 kts | 152° |
| 2026-05-05 20:26 | 49.39208 | 1.50320 | 12080 ft | 320 kts | 152° |
| 2026-05-05 20:27 | 49.37213 | 1.51781 | 11719 ft | 314 kts | 152° |
| 2026-05-05 20:27 | 49.35234 | 1.53228 | 11235 ft | 314 kts | 152° |
| 2026-05-05 20:27 | 49.33305 | 1.54637 | 11105 ft | 303 kts | 152° |
| 2026-05-05 20:27 | 49.31414 | 1.56016 | 11012 ft | 299 kts | 152° |
| 2026-05-05 20:28 | 49.29559 | 1.57428 | 10860 ft | 296 kts | 147° |
| 2026-05-05 20:28 | 49.27844 | 1.59112 | 10867 ft | 291 kts | 142° |
| 2026-05-05 20:28 | 49.26172 | 1.60903 | 10607 ft | 299 kts | 142° |
| 2026-05-05 20:28 | 49.24455 | 1.62768 | 10098 ft | 308 kts | 142° |
| 2026-05-05 20:29 | 49.22728 | 1.64649 | 9790 ft | 302 kts | 141° |
| 2026-05-05 20:29 | 49.21029 | 1.66497 | 9465 ft | 296 kts | 141° |
| 2026-05-05 20:29 | 49.19364 | 1.68303 | 9194 ft | 291 kts | 141° |
| 2026-05-05 20:29 | 49.17718 | 1.70084 | 8833 ft | 291 kts | 141° |
| 2026-05-05 20:30 | 49.16064 | 1.71877 | 8359 ft | 292 kts | 142° |
| 2026-05-05 20:30 | 49.14430 | 1.73647 | 7904 ft | 292 kts | 141° |
| 2026-05-05 20:30 | 49.12775 | 1.75442 | 7452 ft | 292 kts | 141° |
| 2026-05-05 20:30 | 49.11119 | 1.77237 | 7015 ft | 292 kts | 141° |
| 2026-05-05 20:31 | 49.09709 | 1.79404 | 6545 ft | 287 kts | 117° |
| 2026-05-05 20:31 | 49.08800 | 1.82089 | 6130 ft | 284 kts | 113° |
| 2026-05-05 20:31 | 49.07930 | 1.84789 | 5679 ft | 283 kts | 112° |
| 2026-05-05 20:31 | 49.07075 | 1.87450 | 5423 ft | 276 kts | 112° |
| 2026-05-05 20:32 | 49.06241 | 1.90057 | 5154 ft | 270 kts | 113° |
| 2026-05-05 20:32 | 49.05427 | 1.92606 | 4908 ft | 265 kts | 112° |
| 2026-05-05 20:32 | 49.04622 | 1.95099 | 4641 ft | 261 kts | 112° |
| 2026-05-05 20:32 | 49.03816 | 1.97581 | 4375 ft | 260 kts | 112° |
| 2026-05-05 20:33 | 49.03014 | 2.00043 | 4142 ft | 259 kts | 113° |
| 2026-05-05 20:33 | 49.02217 | 2.02514 | 4060 ft | 262 kts | 112° |
| 2026-05-05 20:33 | 49.01737 | 2.05153 | 4040 ft | 257 kts | 92° |
| 2026-05-05 20:33 | 49.01565 | 2.07873 | 4025 ft | 258 kts | 94° |
| 2026-05-05 20:34 | 49.01315 | 2.10569 | 4011 ft | 256 kts | 95° |
| 2026-05-05 20:34 | 49.01024 | 2.13248 | 4029 ft | 257 kts | 96° |
| 2026-05-05 20:34 | 49.00715 | 2.15947 | 4021 ft | 259 kts | 96° |
| 2026-05-05 20:34 | 49.00491 | 2.18660 | 4013 ft | 256 kts | 85° |
| 2026-05-05 20:35 | 49.00613 | 2.21269 | 3999 ft | 236 kts | 81° |
| 2026-05-05 20:35 | 49.00779 | 2.23638 | 3988 ft | 214 kts | 80° |
| 2026-05-05 20:35 | 49.00934 | 2.25815 | 3837 ft | 205 kts | 80° |
| 2026-05-05 20:35 | 49.01075 | 2.27953 | 3546 ft | 203 kts | 80° |
| 2026-05-05 20:36 | 49.01203 | 2.30023 | 3269 ft | 189 kts | 80° |
| 2026-05-05 20:36 | 49.01318 | 2.31941 | 3025 ft | 177 kts | 80° |
| 2026-05-05 20:36 | 49.01424 | 2.33756 | 2815 ft | 168 kts | 78° |
| 2026-05-05 20:36 | 49.01533 | 2.35558 | 2615 ft | 175 kts | 78° |
| 2026-05-05 20:37 | 49.01640 | 2.37408 | 2347 ft | 174 kts | 79° |
| 2026-05-05 20:37 | 49.01741 | 2.39197 | 2108 ft | 164 kts | 79° |
| 2026-05-05 20:37 | 49.01832 | 2.40858 | 1890 ft | 149 kts | 78° |
| 2026-05-05 20:37 | 49.01911 | 2.42341 | 1760 ft | 136 kts | 77° |
| 2026-05-05 20:38 | 49.01973 | 2.43766 | 1517 ft | 133 kts | 78° |
| 2026-05-05 20:38 | 49.02047 | 2.45109 | 1362 ft | 126 kts | 78° |
| 2026-05-05 20:38 | 49.02132 | 2.46488 | 1277 ft | 135 kts | 78° |
| 2026-05-05 20:38 | 49.02180 | 2.47959 | 1088 ft | 139 kts | 81° |
| 2026-05-05 20:39 | 49.02275 | 2.49416 | 868 ft | 139 kts | 76° |
| 2026-05-05 20:39 | 49.02374 | 2.50884 | 595 ft | 138 kts | 80° |
| 2026-05-05 20:39 | 49.02458 | 2.52340 | 418 ft | 138 kts | 81° |
| 2026-05-05 20:39 | 49.02540 | 2.53724 | 358 ft | 111 kts | 85° |
| 2026-05-05 20:40 | 49.02539 | 2.54601 | 353 ft | 52 kts | 106° |
| 2026-05-05 20:40 | 49.02488 | 2.54881 | 355 ft | 18 kts | 105° |
| 2026-05-05 20:40 | 49.02457 | 2.55055 | 355 ft | 17 kts | 105° |
| 2026-05-05 20:40 | 49.02447 | 2.55205 | 355 ft | 5 kts | 84° |
| 2026-05-05 20:41 | 49.02449 | 2.55244 | 353 ft | 0 kts | 84° |
| 2026-05-05 20:42 | 49.02450 | 2.55259 | 362 ft | 6 kts | 84° |
| 2026-05-05 20:43 | 49.02461 | 2.55419 | 356 ft | 24 kts | 84° |
| 2026-05-05 20:43 | 49.02398 | 2.55607 | 361 ft | 23 kts | 164° |
| 2026-05-05 20:43 | 49.02244 | 2.55633 | 353 ft | 22 kts | 176° |
| 2026-05-05 20:43 | 49.02093 | 2.55652 | 354 ft | 21 kts | 176° |
| 2026-05-05 20:44 | 49.01947 | 2.55672 | 356 ft | 21 kts | 177° |
| 2026-05-05 20:44 | 49.01884 | 2.55509 | 354 ft | 20 kts | 265° |
| 2026-05-05 20:44 | 49.01872 | 2.55314 | 359 ft | 17 kts | 265° |
| 2026-05-05 20:44 | 49.01864 | 2.55178 | 354 ft | 9 kts | 266° |
| 2026-05-05 20:45 | 49.01844 | 2.54799 | 358 ft | 26 kts | 265° |
| 2026-05-05 20:45 | 49.01831 | 2.54529 | 353 ft | 25 kts | 265° |
| 2026-05-05 20:45 | 49.01818 | 2.54301 | 353 ft | 12 kts | 251° |
| 2026-05-05 20:46 | 49.01770 | 2.54319 | 356 ft | 9 kts | 121° |
| 2026-05-05 20:46 | 49.01740 | 2.54395 | 359 ft | 8 kts | 121° |
| 2026-05-05 20:46 | 49.01703 | 2.54433 | 353 ft | 1 kts | 200° |
| 2026-05-05 20:46 | 49.01702 | 2.54432 | 353 ft | 0 kts | 206° |
| 2026-05-05 20:47 | 49.01702 | 2.54428 | 360 ft | 0 kts | 236° |
| 2026-05-05 20:47 | 49.01696 | 2.54402 | 359 ft | 4 kts | 248° |
| 2026-05-05 20:47 | 49.01692 | 2.54388 | 356 ft | 0 kts | 252° |
| 2026-05-05 20:59 | 49.01692 | 2.54389 | 353 ft | 0 kts | 252° |
| 2026-05-05 21:00 | 49.01693 | 2.54389 | 353 ft | 0 kts | 252° |